sensor_id;sensor_type;location;lat;lon;timestamp;pressure;altitude;pressure_sealevel;temperature;humidity
45253;BME280;30988;50.518;30.486;2022-08-25T00:00:31;100427.72;;;25.64;43.56
45253;BME280;30988;50.518;30.486;2022-08-25T00:01:08;100430.41;;;25.64;43.39
45253;BME280;30988;50.518;30.486;2022-08-25T00:01:43;100430.22;;;25.66;43.81
45253;BME280;30988;50.518;30.486;2022-08-25T00:02:15;100430.03;;;25.68;43.83
45253;BME280;30988;50.518;30.486;2022-08-25T00:02:48;100429.41;;;25.66;43.74
45253;BME280;30988;50.518;30.486;2022-08-25T00:03:19;100426.22;;;25.62;43.59
45253;BME280;30988;50.518;30.486;2022-08-25T00:03:51;100430.94;;;25.60;43.79
45253;BME280;30988;50.518;30.486;2022-08-25T00:04:23;100423.34;;;25.63;43.63
45253;BME280;30988;50.518;30.486;2022-08-25T00:04:55;100425.69;;;25.67;43.58
45253;BME280;30988;50.518;30.486;2022-08-25T00:05:27;100423.19;;;25.65;43.42
45253;BME280;30988;50.518;30.486;2022-08-25T00:06:00;100423.53;;;25.62;43.80
45253;BME280;30988;50.518;30.486;2022-08-25T00:06:32;100427.06;;;25.62;43.45
45253;BME280;30988;50.518;30.486;2022-08-25T00:07:04;100424.03;;;25.66;43.39
45253;BME280;30988;50.518;30.486;2022-08-25T00:07:36;100425.69;;;25.67;43.68
45253;BME280;30988;50.518;30.486;2022-08-25T00:08:07;100426.03;;;25.63;43.40
45253;BME280;30988;50.518;30.486;2022-08-25T00:08:39;100425.88;;;25.65;43.45
45253;BME280;30988;50.518;30.486;2022-08-25T00:09:12;100418.66;;;25.66;43.62
45253;BME280;30988;50.518;30.486;2022-08-25T00:09:45;100423.00;;;25.67;43.94
45253;BME280;30988;50.518;30.486;2022-08-25T00:10:16;100419.50;;;25.66;43.70
45253;BME280;30988;50.518;30.486;2022-08-25T00:10:48;100424.38;;;25.62;43.53
45253;BME280;30988;50.518;30.486;2022-08-25T00:11:22;100423.06;;;25.58;43.58
45253;BME280;30988;50.518;30.486;2022-08-25T00:11:54;100422.41;;;25.56;43.70
45253;BME280;30988;50.518;30.486;2022-08-25T00:12:25;100430.47;;;25.56;43.80
45253;BME280;30988;50.518;30.486;2022-08-25T00:12:58;100419.25;;;25.53;43.56
45253;BME280;30988;50.518;30.486;2022-08-25T00:13:29;100420.09;;;25.53;43.76
45253;BME280;30988;50.518;30.486;2022-08-25T00:14:05;100422.59;;;25.55;43.71
45253;BME280;30988;50.518;30.486;2022-08-25T00:14:37;100429.81;;;25.54;43.62
45253;BME280;30988;50.518;30.486;2022-08-25T00:15:09;100424.81;;;25.51;43.95
45253;BME280;30988;50.518;30.486;2022-08-25T00:15:40;100423.78;;;25.52;43.63
45253;BME280;30988;50.518;30.486;2022-08-25T00:16:15;100423.63;;;25.54;43.87
45253;BME280;30988;50.518;30.486;2022-08-25T00:16:47;100427.13;;;25.54;44.00
45253;BME280;30988;50.518;30.486;2022-08-25T00:17:18;100421.75;;;25.54;43.70
45253;BME280;30988;50.518;30.486;2022-08-25T00:17:50;100424.25;;;25.56;43.76
45253;BME280;30988;50.518;30.486;2022-08-25T00:18:22;100425.28;;;25.55;43.83
45253;BME280;30988;50.518;30.486;2022-08-25T00:18:55;100426.13;;;25.55;43.62
45253;BME280;30988;50.518;30.486;2022-08-25T00:19:30;100424.97;;;25.50;43.59
45253;BME280;30988;50.518;30.486;2022-08-25T00:20:03;100427.53;;;25.43;43.55
45253;BME280;30988;50.518;30.486;2022-08-25T00:20:35;100426.81;;;25.49;43.90
45253;BME280;30988;50.518;30.486;2022-08-25T00:21:07;100418.75;;;25.49;43.80
45253;BME280;30988;50.518;30.486;2022-08-25T00:21:40;100426.47;;;25.52;44.10
45253;BME280;30988;50.518;30.486;2022-08-25T00:22:11;100425.63;;;25.52;44.01
45253;BME280;30988;50.518;30.486;2022-08-25T00:22:42;100423.09;;;25.50;43.64
45253;BME280;30988;50.518;30.486;2022-08-25T00:23:15;100429.34;;;25.51;44.00
45253;BME280;30988;50.518;30.486;2022-08-25T00:23:46;100422.28;;;25.50;43.77
45253;BME280;30988;50.518;30.486;2022-08-25T00:24:19;100429.50;;;25.49;44.09
45253;BME280;30988;50.518;30.486;2022-08-25T00:24:53;100431.06;;;25.44;44.00
45253;BME280;30988;50.518;30.486;2022-08-25T00:25:25;100426.06;;;25.41;44.19
45253;BME280;30988;50.518;30.486;2022-08-25T00:25:57;100427.06;;;25.40;44.09
45253;BME280;30988;50.518;30.486;2022-08-25T00:26:28;100428.72;;;25.41;44.38
45253;BME280;30988;50.518;30.486;2022-08-25T00:27:01;100425.03;;;25.42;44.37
45253;BME280;30988;50.518;30.486;2022-08-25T00:27:33;100433.44;;;25.39;44.26
45253;BME280;30988;50.518;30.486;2022-08-25T00:28:04;100423.22;;;25.34;43.87
45253;BME280;30988;50.518;30.486;2022-08-25T00:28:36;100429.09;;;25.38;44.39
45253;BME280;30988;50.518;30.486;2022-08-25T00:29:09;100430.91;;;25.37;44.11
45253;BME280;30988;50.518;30.486;2022-08-25T00:29:41;100436.13;;;25.39;44.14
45253;BME280;30988;50.518;30.486;2022-08-25T00:30:13;100436.78;;;25.41;44.41
45253;BME280;30988;50.518;30.486;2022-08-25T00:30:46;100438.44;;;25.42;44.19
45253;BME280;30988;50.518;30.486;2022-08-25T00:31:20;100431.06;;;25.44;44.24
45253;BME280;30988;50.518;30.486;2022-08-25T00:31:54;100430.41;;;25.42;44.17
45253;BME280;30988;50.518;30.486;2022-08-25T00:32:26;100429.09;;;25.38;44.33
45253;BME280;30988;50.518;30.486;2022-08-25T00:32:58;100433.44;;;25.39;44.53
45253;BME280;30988;50.518;30.486;2022-08-25T00:33:31;100429.09;;;25.38;44.39
45253;BME280;30988;50.518;30.486;2022-08-25T00:34:03;100437.78;;;25.40;44.20
45253;BME280;30988;50.518;30.486;2022-08-25T00:34:38;100433.44;;;25.39;44.30
45253;BME280;30988;50.518;30.486;2022-08-25T00:35:09;100431.59;;;25.39;44.52
45253;BME280;30988;50.518;30.486;2022-08-25T00:35:41;100424.38;;;25.40;44.66
45253;BME280;30988;50.518;30.486;2022-08-25T00:36:14;100432.25;;;25.41;44.46
45253;BME280;30988;50.518;30.486;2022-08-25T00:36:46;100430.91;;;25.37;44.36
45253;BME280;30988;50.518;30.486;2022-08-25T00:37:58;100439.38;;;25.26;44.52
45253;BME280;30988;50.518;30.486;2022-08-25T00:38:38;100434.72;;;25.20;44.84
45253;BME280;30988;50.518;30.486;2022-08-25T00:39:12;100440.25;;;25.18;44.56
45253;BME280;30988;50.518;30.486;2022-08-25T00:39:45;100432.03;;;25.20;44.45
45253;BME280;30988;50.518;30.486;2022-08-25T00:40:30;100428.03;;;25.16;44.45
45253;BME280;30988;50.518;30.486;2022-08-25T00:41:06;100436.09;;;25.16;44.75
45253;BME280;30988;50.518;30.486;2022-08-25T00:41:38;100434.72;;;25.20;44.65
45253;BME280;30988;50.518;30.486;2022-08-25T00:42:34;100435.25;;;25.15;45.04
45253;BME280;30988;50.518;30.486;2022-08-25T00:43:09;100436.09;;;25.16;44.97
45253;BME280;30988;50.518;30.486;2022-08-25T00:43:45;100438.41;;;25.19;45.00
45253;BME280;30988;50.518;30.486;2022-08-25T00:44:45;100433.41;;;25.16;44.73
45253;BME280;30988;50.518;30.486;2022-08-25T00:45:25;100430.41;;;25.11;44.73
45253;BME280;30988;50.518;30.486;2022-08-25T00:46:19;100428.78;;;25.01;45.02
45253;BME280;30988;50.518;30.486;2022-08-25T00:47:07;100432.63;;;24.99;44.94
45253;BME280;30988;50.518;30.486;2022-08-25T00:47:40;100437.66;;;25.02;44.81
45253;BME280;30988;50.518;30.486;2022-08-25T00:48:18;100438.31;;;24.96;44.77
45253;BME280;30988;50.518;30.486;2022-08-25T00:48:56;100432.81;;;24.97;44.86
45253;BME280;30988;50.518;30.486;2022-08-25T00:49:34;100431.63;;;25.00;44.85
45253;BME280;30988;50.518;30.486;2022-08-25T00:50:08;100435.81;;;25.02;44.95
45253;BME280;30988;50.518;30.486;2022-08-25T00:51:28;100436.81;;;25.01;44.99
45253;BME280;30988;50.518;30.486;2022-08-25T00:52:07;100435.31;;;24.99;45.10
45253;BME280;30988;50.518;30.486;2022-08-25T00:52:41;100435.16;;;25.00;44.80
45253;BME280;30988;50.518;30.486;2022-08-25T00:53:17;100434.47;;;24.98;44.79
45253;BME280;30988;50.518;30.486;2022-08-25T00:55:13;100431.34;;;24.79;44.98
45253;BME280;30988;50.518;30.486;2022-08-25T00:55:47;100431.66;;;24.84;44.94
45253;BME280;30988;50.518;30.486;2022-08-25T00:56:26;100434.84;;;24.87;44.87
45253;BME280;30988;50.518;30.486;2022-08-25T00:57:16;100429.97;;;24.91;45.24
45253;BME280;30988;50.518;30.486;2022-08-25T00:57:56;100432.91;;;24.73;44.95
45253;BME280;30988;50.518;30.486;2022-08-25T00:58:47;100427.84;;;24.78;45.29
45253;BME280;30988;50.518;30.486;2022-08-25T00:59:43;100430.72;;;24.68;44.88
45253;BME280;30988;50.518;30.486;2022-08-25T01:00:20;100436.31;;;24.59;45.26
45253;BME280;30988;50.518;30.486;2022-08-25T01:00:54;100427.88;;;24.70;45.28
45253;BME280;30988;50.518;30.486;2022-08-25T01:01:46;100428.69;;;24.70;45.16
45253;BME280;30988;50.518;30.486;2022-08-25T01:02:31;100424.22;;;24.71;45.15
45253;BME280;30988;50.518;30.486;2022-08-25T01:03:03;100436.31;;;24.51;45.23
45253;BME280;30988;50.518;30.486;2022-08-25T01:03:35;100432.44;;;24.61;45.52
45253;BME280;30988;50.518;30.486;2022-08-25T01:04:07;100429.72;;;24.69;45.39
45253;BME280;30988;50.518;30.486;2022-08-25T01:05:05;100428.09;;;24.60;45.31
45253;BME280;30988;50.518;30.486;2022-08-25T01:05:39;100427.25;;;24.60;45.39
45253;BME280;30988;50.518;30.486;2022-08-25T01:06:15;100442.97;;;24.63;45.45
45253;BME280;30988;50.518;30.486;2022-08-25T01:06:48;100434.59;;;24.66;45.58
45253;BME280;30988;50.518;30.486;2022-08-25T01:08:27;100434.06;;;24.70;45.74
45253;BME280;30988;50.518;30.486;2022-08-25T01:09:00;100430.41;;;24.71;45.65
45253;BME280;30988;50.518;30.486;2022-08-25T01:11:24;100428.91;;;24.61;45.54
45253;BME280;30988;50.518;30.486;2022-08-25T01:11:58;100427.13;;;24.45;45.58
45253;BME280;30988;50.518;30.486;2022-08-25T01:12:29;100428.59;;;24.56;45.48
45253;BME280;30988;50.518;30.486;2022-08-25T01:13:06;100430.59;;;24.62;45.77
45253;BME280;30988;50.518;30.486;2022-08-25T01:13:41;100426.72;;;24.64;45.87
45253;BME280;30988;50.518;30.486;2022-08-25T01:14:45;100432.09;;;24.56;45.50
45253;BME280;30988;50.518;30.486;2022-08-25T01:15:21;100429.28;;;24.50;45.51
45253;BME280;30988;50.518;30.486;2022-08-25T01:15:55;100427.94;;;24.54;45.57
45253;BME280;30988;50.518;30.486;2022-08-25T01:16:27;100428.59;;;24.56;45.86
45253;BME280;30988;50.518;30.486;2022-08-25T01:17:00;100429.94;;;24.60;45.57
45253;BME280;30988;50.518;30.486;2022-08-25T01:17:44;100431.78;;;24.59;45.93
45253;BME280;30988;50.518;30.486;2022-08-25T01:18:49;100435.00;;;24.30;45.79
45253;BME280;30988;50.518;30.486;2022-08-25T01:19:22;100426.66;;;24.33;45.87
45253;BME280;30988;50.518;30.486;2022-08-25T01:19:55;100427.44;;;24.42;45.79
45253;BME280;30988;50.518;30.486;2022-08-25T01:20:30;100425.59;;;24.42;45.89
45253;BME280;30988;50.518;30.486;2022-08-25T01:21:04;100426.97;;;24.30;45.61
45253;BME280;30988;50.518;30.486;2022-08-25T01:21:39;100423.47;;;24.38;45.80
45253;BME280;30988;50.518;30.486;2022-08-25T01:22:13;100422.13;;;24.34;45.96
45253;BME280;30988;50.518;30.486;2022-08-25T01:23:12;100424.78;;;24.42;46.08
45253;BME280;30988;50.518;30.486;2022-08-25T01:23:45;100418.75;;;24.48;46.18
45253;BME280;30988;50.518;30.486;2022-08-25T01:24:30;100416.56;;;24.43;46.19
45253;BME280;30988;50.518;30.486;2022-08-25T01:25:14;100415.25;;;24.39;46.10
45253;BME280;30988;50.518;30.486;2022-08-25T01:25:51;100420.59;;;24.39;45.88
45253;BME280;30988;50.518;30.486;2022-08-25T01:26:46;100421.63;;;24.38;45.86
45253;BME280;30988;50.518;30.486;2022-08-25T01:27:22;100416.09;;;24.40;46.17
45253;BME280;30988;50.518;30.486;2022-08-25T01:27:58;100422.94;;;24.42;46.05
45253;BME280;30988;50.518;30.486;2022-08-25T01:28:40;100417.63;;;24.34;46.18
45253;BME280;30988;50.518;30.486;2022-08-25T01:29:35;100425.28;;;24.29;46.28
45253;BME280;30988;50.518;30.486;2022-08-25T01:30:07;100420.28;;;24.26;46.28
45253;BME280;30988;50.518;30.486;2022-08-25T01:30:42;100421.63;;;24.22;46.13
45253;BME280;30988;50.518;30.486;2022-08-25T01:31:17;100419.59;;;24.16;46.46
45253;BME280;30988;50.518;30.486;2022-08-25T01:32:00;100425.47;;;24.20;46.46
45253;BME280;30988;50.518;30.486;2022-08-25T01:32:37;100420.28;;;24.26;46.76
45253;BME280;30988;50.518;30.486;2022-08-25T01:33:10;100421.09;;;24.27;46.41
45253;BME280;30988;50.518;30.486;2022-08-25T01:33:48;100415.78;;;24.18;46.36
45253;BME280;30988;50.518;30.486;2022-08-25T01:34:21;100417.94;;;24.23;46.62
45253;BME280;30988;50.518;30.486;2022-08-25T01:34:55;100418.94;;;24.22;46.38
45253;BME280;30988;50.518;30.486;2022-08-25T01:35:33;100423.94;;;24.25;46.40
45253;BME280;30988;50.518;30.486;2022-08-25T01:37:04;100418.63;;;24.33;46.59
45253;BME280;30988;50.518;30.486;2022-08-25T01:37:35;100419.78;;;24.39;46.91
45253;BME280;30988;50.518;30.486;2022-08-25T01:38:08;100419.28;;;24.35;46.35
45253;BME280;30988;50.518;30.486;2022-08-25T01:38:40;100417.97;;;24.31;46.50
45253;BME280;30988;50.518;30.486;2022-08-25T01:39:14;100417.78;;;24.33;46.37
45253;BME280;30988;50.518;30.486;2022-08-25T01:39:47;100422.97;;;24.34;46.27
45253;BME280;30988;50.518;30.486;2022-08-25T01:40:22;100418.09;;;24.38;46.74
45253;BME280;30988;50.518;30.486;2022-08-25T01:41:35;100411.56;;;24.24;46.45
45253;BME280;30988;50.518;30.486;2022-08-25T01:42:23;100414.09;;;24.34;46.30
45253;BME280;30988;50.518;30.486;2022-08-25T01:43:10;100414.75;;;24.36;46.56
45253;BME280;30988;50.518;30.486;2022-08-25T01:43:44;100412.75;;;24.30;46.45
45253;BME280;30988;50.518;30.486;2022-08-25T01:44:17;100413.09;;;24.35;46.38
45253;BME280;30988;50.518;30.486;2022-08-25T01:44:49;100418.28;;;24.36;46.57
45253;BME280;30988;50.518;30.486;2022-08-25T01:45:22;100422.63;;;24.37;46.61
45253;BME280;30988;50.518;30.486;2022-08-25T01:45:53;100414.59;;;24.37;46.31
45253;BME280;30988;50.518;30.486;2022-08-25T01:46:25;100413.59;;;24.38;46.42
45253;BME280;30988;50.518;30.486;2022-08-25T01:47:05;100411.56;;;24.40;46.62
45253;BME280;30988;50.518;30.486;2022-08-25T01:47:56;100418.59;;;24.41;46.51
45253;BME280;30988;50.518;30.486;2022-08-25T01:48:49;100412.56;;;24.39;46.20
45253;BME280;30988;50.518;30.486;2022-08-25T01:49:26;100417.56;;;24.42;46.28
45253;BME280;30988;50.518;30.486;2022-08-25T01:49:58;100419.09;;;24.45;46.65
45253;BME280;30988;50.518;30.486;2022-08-25T01:50:30;100418.56;;;24.50;46.22
45253;BME280;30988;50.518;30.486;2022-08-25T01:51:13;100416.72;;;24.50;46.60
45253;BME280;30988;50.518;30.486;2022-08-25T01:51:47;100418.75;;;24.48;46.12
45253;BME280;30988;50.518;30.486;2022-08-25T01:52:50;100420.25;;;24.42;46.25
45253;BME280;30988;50.518;30.486;2022-08-25T01:53:27;100421.94;;;24.43;46.54
45253;BME280;30988;50.518;30.486;2022-08-25T01:54:11;100416.25;;;24.38;46.15
45253;BME280;30988;50.518;30.486;2022-08-25T01:54:46;100423.47;;;24.30;46.29
45253;BME280;30988;50.518;30.486;2022-08-25T01:55:20;100423.97;;;24.33;46.33
45253;BME280;30988;50.518;30.486;2022-08-25T01:55:54;100416.78;;;24.34;46.37
45253;BME280;30988;50.518;30.486;2022-08-25T01:56:34;100422.63;;;24.21;46.05
45253;BME280;30988;50.518;30.486;2022-08-25T01:57:23;100419.59;;;24.24;46.48
45253;BME280;30988;50.518;30.486;2022-08-25T01:57:54;100423.13;;;24.25;46.45
45253;BME280;30988;50.518;30.486;2022-08-25T01:58:28;100425.63;;;24.26;46.56
45253;BME280;30988;50.518;30.486;2022-08-25T01:59:00;100424.97;;;24.24;46.47
45253;BME280;30988;50.518;30.486;2022-08-25T01:59:32;100420.78;;;24.30;46.66
45253;BME280;30988;50.518;30.486;2022-08-25T02:00:05;100418.44;;;24.35;46.68
45253;BME280;30988;50.518;30.486;2022-08-25T02:00:45;100422.09;;;24.26;46.49
45253;BME280;30988;50.518;30.486;2022-08-25T02:01:21;100419.47;;;24.34;46.65
45253;BME280;30988;50.518;30.486;2022-08-25T02:01:53;100418.09;;;24.38;46.62
45253;BME280;30988;50.518;30.486;2022-08-25T02:02:25;100419.59;;;24.40;46.65
45253;BME280;30988;50.518;30.486;2022-08-25T02:03:16;100423.28;;;24.39;46.46
45253;BME280;30988;50.518;30.486;2022-08-25T02:03:53;100422.13;;;24.34;46.25
45253;BME280;30988;50.518;30.486;2022-08-25T02:04:24;100428.16;;;24.36;46.41
45253;BME280;30988;50.518;30.486;2022-08-25T02:04:56;100423.94;;;24.41;46.66
45253;BME280;30988;50.518;30.486;2022-08-25T02:05:28;100423.47;;;24.38;46.57
45253;BME280;30988;50.518;30.486;2022-08-25T02:06:03;100422.63;;;24.37;46.30
45253;BME280;30988;50.518;30.486;2022-08-25T02:06:38;100424.16;;;24.32;46.60
45253;BME280;30988;50.518;30.486;2022-08-25T02:07:10;100428.50;;;24.33;47.08
45253;BME280;30988;50.518;30.486;2022-08-25T02:07:46;100425.47;;;24.36;46.93
45253;BME280;30988;50.518;30.486;2022-08-25T02:08:19;100422.31;;;24.32;46.72
45253;BME280;30988;50.518;30.486;2022-08-25T02:08:55;100427.13;;;24.29;46.62
45253;BME280;30988;50.518;30.486;2022-08-25T02:09:29;100423.47;;;24.30;46.71
45253;BME280;30988;50.518;30.486;2022-08-25T02:10:00;100420.28;;;24.34;46.87
45253;BME280;30988;50.518;30.486;2022-08-25T02:10:34;100422.13;;;24.34;46.63
45253;BME280;30988;50.518;30.486;2022-08-25T02:11:11;100423.97;;;24.33;46.92
45253;BME280;30988;50.518;30.486;2022-08-25T02:11:48;100430.00;;;24.35;46.67
45253;BME280;30988;50.518;30.486;2022-08-25T02:12:30;100425.81;;;24.33;46.49
45253;BME280;30988;50.518;30.486;2022-08-25T02:13:08;100421.63;;;24.22;46.78
45253;BME280;30988;50.518;30.486;2022-08-25T02:13:41;100424.63;;;24.27;46.72
45253;BME280;30988;50.518;30.486;2022-08-25T02:14:18;100420.94;;;24.28;47.01
45253;BME280;30988;50.518;30.486;2022-08-25T02:14:50;100423.31;;;24.31;47.15
45253;BME280;30988;50.518;30.486;2022-08-25T02:15:22;100429.50;;;24.32;46.67
45253;BME280;30988;50.518;30.486;2022-08-25T02:15:56;100423.47;;;24.30;47.06
45253;BME280;30988;50.518;30.486;2022-08-25T02:16:31;100426.97;;;24.30;47.09
45253;BME280;30988;50.518;30.486;2022-08-25T02:17:05;100419.44;;;24.26;46.80
45253;BME280;30988;50.518;30.486;2022-08-25T02:17:47;100429.00;;;24.20;47.30
45253;BME280;30988;50.518;30.486;2022-08-25T02:18:21;100434.00;;;24.15;46.96
45253;BME280;30988;50.518;30.486;2022-08-25T02:18:54;100427.31;;;24.19;47.38
45253;BME280;30988;50.518;30.486;2022-08-25T02:19:28;100424.97;;;24.24;46.95
45253;BME280;30988;50.518;30.486;2022-08-25T02:20:08;100430.31;;;24.24;47.26
45253;BME280;30988;50.518;30.486;2022-08-25T02:20:40;100425.97;;;24.23;46.96
45253;BME280;30988;50.518;30.486;2022-08-25T02:21:12;100422.78;;;24.28;47.30
45253;BME280;30988;50.518;30.486;2022-08-25T02:21:45;100423.78;;;24.27;47.43
45253;BME280;30988;50.518;30.486;2022-08-25T02:22:22;100429.97;;;24.27;47.39
45253;BME280;30988;50.518;30.486;2022-08-25T02:22:56;100425.28;;;24.29;47.18
45253;BME280;30988;50.518;30.486;2022-08-25T02:23:30;100422.94;;;24.26;47.11
45253;BME280;30988;50.518;30.486;2022-08-25T02:24:03;100424.63;;;24.27;47.34
45253;BME280;30988;50.518;30.486;2022-08-25T02:25:01;100430.00;;;24.19;47.10
45253;BME280;30988;50.518;30.486;2022-08-25T02:25:37;100428.34;;;24.18;47.48
45253;BME280;30988;50.518;30.486;2022-08-25T02:26:32;100425.78;;;24.16;47.52
45253;BME280;30988;50.518;30.486;2022-08-25T02:27:05;100429.47;;;24.15;47.72
45253;BME280;30988;50.518;30.486;2022-08-25T02:27:37;100423.94;;;24.17;47.50
45253;BME280;30988;50.518;30.486;2022-08-25T02:28:12;100424.31;;;24.22;47.32
45253;BME280;30988;50.518;30.486;2022-08-25T02:28:45;100421.78;;;24.21;47.22
45253;BME280;30988;50.518;30.486;2022-08-25T02:29:25;100424.66;;;24.19;47.54
45253;BME280;30988;50.518;30.486;2022-08-25T02:30:11;100431.00;;;24.18;47.48
45253;BME280;30988;50.518;30.486;2022-08-25T02:31:01;100419.59;;;24.16;47.30
45253;BME280;30988;50.518;30.486;2022-08-25T02:31:35;100425.66;;;24.18;47.52
45253;BME280;30988;50.518;30.486;2022-08-25T02:32:11;100425.47;;;24.20;47.70
45253;BME280;30988;50.518;30.486;2022-08-25T02:32:45;100422.47;;;24.14;47.53
45253;BME280;30988;50.518;30.486;2022-08-25T02:33:22;100424.13;;;24.15;47.59
45253;BME280;30988;50.518;30.486;2022-08-25T02:33:54;100429.16;;;24.18;47.41
45253;BME280;30988;50.518;30.486;2022-08-25T02:34:25;100418.78;;;24.15;47.26
45253;BME280;30988;50.518;30.486;2022-08-25T02:35:00;100419.78;;;24.14;47.79
45253;BME280;30988;50.518;30.486;2022-08-25T02:35:32;100421.97;;;24.11;47.38
45253;BME280;30988;50.518;30.486;2022-08-25T02:36:25;100426.50;;;24.10;47.24
45253;BME280;30988;50.518;30.486;2022-08-25T02:37:02;100423.63;;;24.12;47.68
45253;BME280;30988;50.518;30.486;2022-08-25T02:37:35;100419.28;;;24.11;47.35
45253;BME280;30988;50.518;30.486;2022-08-25T02:38:09;100425.97;;;24.15;47.70
45253;BME280;30988;50.518;30.486;2022-08-25T02:39:06;100426.31;;;24.04;47.30
45253;BME280;30988;50.518;30.486;2022-08-25T02:39:53;100423.50;;;24.05;47.66
45253;BME280;30988;50.518;30.486;2022-08-25T02:40:27;100426.66;;;24.09;47.30
45253;BME280;30988;50.518;30.486;2022-08-25T02:41:08;100424.63;;;24.03;47.21
45253;BME280;30988;50.518;30.486;2022-08-25T02:41:41;100426.16;;;24.05;47.52
45253;BME280;30988;50.518;30.486;2022-08-25T02:42:16;100423.97;;;24.09;47.51
45253;BME280;30988;50.518;30.486;2022-08-25T02:42:49;100422.50;;;24.06;47.37
45253;BME280;30988;50.518;30.486;2022-08-25T02:43:22;100422.81;;;24.03;47.65
45253;BME280;30988;50.518;30.486;2022-08-25T02:44:15;100427.19;;;24.04;47.40
45253;BME280;30988;50.518;30.486;2022-08-25T02:44:49;100420.66;;;24.07;47.62
45253;BME280;30988;50.518;30.486;2022-08-25T02:45:24;100421.47;;;24.07;47.52
45253;BME280;30988;50.518;30.486;2022-08-25T02:45:55;100418.81;;;24.07;47.66
45253;BME280;30988;50.518;30.486;2022-08-25T02:46:54;100424.81;;;24.01;47.88
45253;BME280;30988;50.518;30.486;2022-08-25T02:47:26;100422.81;;;24.03;47.61
45253;BME280;30988;50.518;30.486;2022-08-25T02:48:02;100420.97;;;24.04;48.01
45253;BME280;30988;50.518;30.486;2022-08-25T02:48:33;100415.28;;;24.07;48.13
45253;BME280;30988;50.518;30.486;2022-08-25T02:49:05;100420.81;;;24.05;47.76
45253;BME280;30988;50.518;30.486;2022-08-25T02:49:38;100423.31;;;24.07;47.69
45253;BME280;30988;50.518;30.486;2022-08-25T02:50:13;100422.31;;;24.08;47.79
45253;BME280;30988;50.518;30.486;2022-08-25T02:50:45;100423.97;;;24.09;48.12
45253;BME280;30988;50.518;30.486;2022-08-25T02:51:22;100427.00;;;24.06;47.84
45253;BME280;30988;50.518;30.486;2022-08-25T02:51:55;100430.69;;;23.97;48.12
45253;BME280;30988;50.518;30.486;2022-08-25T02:52:30;100425.81;;;24.00;47.82
45253;BME280;30988;50.518;30.486;2022-08-25T02:53:08;100416.47;;;24.04;48.01
45253;BME280;30988;50.518;30.486;2022-08-25T02:53:44;100421.81;;;24.04;47.83
45253;BME280;30988;50.518;30.486;2022-08-25T02:54:17;100424.50;;;24.04;48.24
45253;BME280;30988;50.518;30.486;2022-08-25T02:55:27;100420.97;;;24.04;48.18
45253;BME280;30988;50.518;30.486;2022-08-25T02:56:00;100424.16;;;23.99;47.81
45253;BME280;30988;50.518;30.486;2022-08-25T02:56:35;100426.47;;;24.02;48.02
45253;BME280;30988;50.518;30.486;2022-08-25T02:57:08;100420.97;;;24.04;48.38
45253;BME280;30988;50.518;30.486;2022-08-25T02:57:44;100434.03;;;23.91;48.32
45253;BME280;30988;50.518;30.486;2022-08-25T02:58:17;100426.34;;;23.96;48.41
45253;BME280;30988;50.518;30.486;2022-08-25T02:58:52;100436.69;;;23.99;48.06
45253;BME280;30988;50.518;30.486;2022-08-25T02:59:26;100424.97;;;24.00;48.12
45253;BME280;30988;50.518;30.486;2022-08-25T02:59:57;100424.81;;;24.01;48.49
45253;BME280;30988;50.518;30.486;2022-08-25T03:00:29;100425.81;;;24.00;48.31
45253;BME280;30988;50.518;30.486;2022-08-25T03:01:01;100426.66;;;24.01;48.56
45253;BME280;30988;50.518;30.486;2022-08-25T03:01:34;100423.97;;;24.01;48.65
45253;BME280;30988;50.518;30.486;2022-08-25T03:02:06;100422.13;;;24.01;48.17
45253;BME280;30988;50.518;30.486;2022-08-25T03:02:41;100428.34;;;23.94;48.65
45253;BME280;30988;50.518;30.486;2022-08-25T03:03:13;100429.00;;;23.96;48.58
45253;BME280;30988;50.518;30.486;2022-08-25T03:03:50;100426.50;;;23.94;48.42
45253;BME280;30988;50.518;30.486;2022-08-25T03:04:23;100425.69;;;23.94;48.73
45253;BME280;30988;50.518;30.486;2022-08-25T03:04:55;100426.34;;;23.96;48.61
45253;BME280;30988;50.518;30.486;2022-08-25T03:05:29;100431.03;;;23.94;48.58
45253;BME280;30988;50.518;30.486;2022-08-25T03:06:23;100426.00;;;23.91;48.54
45253;BME280;30988;50.518;30.486;2022-08-25T03:07:04;100431.69;;;23.87;48.71
45253;BME280;30988;50.518;30.486;2022-08-25T03:07:41;100435.00;;;23.89;48.40
45253;BME280;30988;50.518;30.486;2022-08-25T03:08:12;100434.19;;;23.89;48.86
45253;BME280;30988;50.518;30.486;2022-08-25T03:08:45;100426.84;;;23.91;48.92
45253;BME280;30988;50.518;30.486;2022-08-25T03:10:22;100438.69;;;23.72;49.15
45253;BME280;30988;50.518;30.486;2022-08-25T03:11:18;100432.84;;;23.69;49.03
45253;BME280;30988;50.518;30.486;2022-08-25T03:11:52;100436.19;;;23.71;49.05
45253;BME280;30988;50.518;30.486;2022-08-25T03:13:49;100436.38;;;23.77;49.18
45253;BME280;30988;50.518;30.486;2022-08-25T03:14:22;100433.53;;;23.79;49.53
45253;BME280;30988;50.518;30.486;2022-08-25T03:14:54;100431.34;;;23.74;49.43
45253;BME280;30988;50.518;30.486;2022-08-25T03:15:36;100430.00;;;23.70;49.85
45253;BME280;30988;50.518;30.486;2022-08-25T03:16:09;100432.00;;;23.76;49.68
45253;BME280;30988;50.518;30.486;2022-08-25T03:16:44;100430.69;;;23.72;49.96
45253;BME280;30988;50.518;30.486;2022-08-25T03:17:20;100442.72;;;23.68;49.63
45253;BME280;30988;50.518;30.486;2022-08-25T03:17:52;100435.38;;;23.70;50.16